createdAt,value
2023-05-17T00:00:31.616Z,100.00
2023-05-17T00:03:15.654Z,100.00
2023-05-17T00:05:43.913Z,100.00
2023-05-17T00:08:12.383Z,100.00
2023-05-17T00:10:40.788Z,100.00
2023-05-17T00:13:09.067Z,100.00
2023-05-17T00:15:38.319Z,100.00
2023-05-17T00:18:06.682Z,100.00
2023-05-17T00:20:35.993Z,100.00
2023-05-17T00:23:04.372Z,100.00
2023-05-17T00:25:32.580Z,100.00
2023-05-17T00:28:00.734Z,100.00
2023-05-17T00:30:29.957Z,100.00
2023-05-17T00:32:58.443Z,100.00
2023-05-17T00:35:27.532Z,100.00
2023-05-17T00:37:55.924Z,100.00
2023-05-17T00:40:24.250Z,100.00
2023-05-17T00:42:52.479Z,100.00
2023-05-17T00:45:20.761Z,100.00
2023-05-17T00:47:49.034Z,100.00
2023-05-17T00:50:17.687Z,100.00
2023-05-17T00:52:46.973Z,100.00
2023-05-17T00:55:15.317Z,100.00
2023-05-17T00:57:44.252Z,100.00
2023-05-17T01:00:13.856Z,100.00
2023-05-17T01:02:42.222Z,100.00
2023-05-17T01:05:10.689Z,100.00
2023-05-17T01:07:38.942Z,100.00
2023-05-17T01:10:08.402Z,100.00
2023-05-17T01:12:55.512Z,100.00
2023-05-17T01:15:35.064Z,100.00
2023-05-17T01:18:22.281Z,100.00
2023-05-17T01:20:53.598Z,100.00
2023-05-17T01:23:49.205Z,100.00
2023-05-17T01:26:22.541Z,100.00
2023-05-17T01:28:55.095Z,100.00
2023-05-17T01:31:23.825Z,100.00
2023-05-17T01:33:51.989Z,100.00
2023-05-17T01:36:20.940Z,100.00
2023-05-17T01:38:49.191Z,100.00
2023-05-17T01:41:32.103Z,100.00
2023-05-17T01:44:13.838Z,100.00
2023-05-17T01:46:43.737Z,100.00
2023-05-17T01:49:31.520Z,100.00
2023-05-17T01:52:29.533Z,100.00
2023-05-17T01:55:15.758Z,100.00
2023-05-17T01:57:47.519Z,100.00
2023-05-17T02:00:17.269Z,100.00
2023-05-17T02:02:47.731Z,100.00
2023-05-17T02:05:16.206Z,100.00
2023-05-17T02:07:44.574Z,100.00
2023-05-17T02:10:13.248Z,100.00
2023-05-17T02:12:44.168Z,100.00
2023-05-17T02:15:13.986Z,100.00
2023-05-17T02:17:42.396Z,100.00
2023-05-17T02:20:12.086Z,100.00
2023-05-17T02:22:40.443Z,100.00
2023-05-17T02:25:09.162Z,100.00
2023-05-17T02:27:37.454Z,100.00
2023-05-17T02:30:06.865Z,100.00
2023-05-17T02:32:35.129Z,100.00
2023-05-17T02:35:03.685Z,100.00
2023-05-17T02:37:31.904Z,100.00
2023-05-17T02:40:00.190Z,100.00
2023-05-17T02:42:28.502Z,100.00
2023-05-17T02:44:58.299Z,100.00
2023-05-17T02:47:26.560Z,100.00
2023-05-17T02:49:54.798Z,100.00
2023-05-17T02:52:23.077Z,100.00
2023-05-17T02:54:51.857Z,100.00
2023-05-17T02:57:21.039Z,100.00
2023-05-17T02:59:49.411Z,100.00
2023-05-17T03:02:17.989Z,100.00
2023-05-17T03:04:46.448Z,100.00
2023-05-17T03:07:15.191Z,100.00
2023-05-17T03:09:44.338Z,100.00
2023-05-17T03:12:12.695Z,100.00
2023-05-17T03:14:41.373Z,100.00
2023-05-17T03:17:11.051Z,100.00
2023-05-17T03:19:40.076Z,100.00
2023-05-17T03:22:08.385Z,100.00
2023-05-17T03:24:36.690Z,100.00
2023-05-17T03:27:05.252Z,100.00
2023-05-17T03:29:33.780Z,100.00
2023-05-17T03:32:03.384Z,100.00
2023-05-17T03:34:31.980Z,100.00
2023-05-17T03:37:01.648Z,100.00
2023-05-17T03:39:29.961Z,100.00
2023-05-17T03:41:58.392Z,100.00
2023-05-17T03:44:27.093Z,100.00
2023-05-17T03:46:56.041Z,100.00
2023-05-17T03:49:25.531Z,100.00
2023-05-17T03:51:54.415Z,100.00
2023-05-17T03:54:22.615Z,100.00
2023-05-17T03:56:51.080Z,100.00
2023-05-17T03:59:20.018Z,100.00
2023-05-17T04:01:48.610Z,100.00
2023-05-17T04:04:16.981Z,100.00
2023-05-17T04:06:45.586Z,100.00
2023-05-17T04:09:15.729Z,100.00
2023-05-17T04:11:44.165Z,100.00
2023-05-17T04:14:12.842Z,100.00
2023-05-17T04:16:41.201Z,100.00
2023-05-17T04:19:11.625Z,100.00
2023-05-17T04:21:41.064Z,100.00
2023-05-17T04:24:09.888Z,100.00
2023-05-17T04:26:38.279Z,100.00
2023-05-17T04:29:07.097Z,100.00
2023-05-17T04:31:35.319Z,100.00
2023-05-17T04:34:03.619Z,100.00
2023-05-17T04:36:32.580Z,100.00
2023-05-17T04:39:03.321Z,100.00
2023-05-17T04:41:32.196Z,100.00
2023-05-17T04:44:00.892Z,100.00
2023-05-17T04:46:33.624Z,100.00
2023-05-17T04:49:03.406Z,100.00
2023-05-17T04:51:32.302Z,100.00
2023-05-17T04:54:01.352Z,100.00
2023-05-17T04:56:31.410Z,100.00
2023-05-17T04:59:00.401Z,100.00
2023-05-17T05:01:32.016Z,100.00
2023-05-17T05:04:00.867Z,100.00
2023-05-17T05:06:30.066Z,100.00
2023-05-17T05:08:58.422Z,100.00
2023-05-17T05:11:27.850Z,100.00
2023-05-17T05:13:56.562Z,100.00
2023-05-17T05:16:25.656Z,100.00
2023-05-17T05:18:54.534Z,100.00
2023-05-17T05:21:24.486Z,100.00
2023-05-17T05:23:53.885Z,100.00
2023-05-17T05:26:22.442Z,100.00
2023-05-17T05:28:51.565Z,100.00
2023-05-17T05:31:20.532Z,100.00
2023-05-17T05:33:52.173Z,100.00
2023-05-17T05:36:20.718Z,100.00
2023-05-17T05:38:49.504Z,100.00
2023-05-17T05:41:17.981Z,100.00
2023-05-17T05:43:46.626Z,100.00
2023-05-17T05:46:15.362Z,100.00
2023-05-17T05:48:47.062Z,100.00
2023-05-17T05:51:15.780Z,100.00
2023-05-17T05:53:44.739Z,100.00
2023-05-17T05:56:13.471Z,100.00
2023-05-17T05:58:42.622Z,100.00
2023-05-17T06:01:11.597Z,100.00
2023-05-17T06:03:39.869Z,100.00
2023-05-17T06:06:08.337Z,100.00
2023-05-17T06:08:36.666Z,100.00
2023-05-17T06:11:05.112Z,100.00
2023-05-17T06:13:33.509Z,100.00
2023-05-17T06:16:02.100Z,100.00
2023-05-17T06:18:30.374Z,100.00
2023-05-17T06:20:59.120Z,100.00
2023-05-17T06:23:27.690Z,100.00
2023-05-17T06:25:56.103Z,100.00
2023-05-17T06:28:24.803Z,100.00
2023-05-17T06:30:53.055Z,100.00
2023-05-17T06:33:21.421Z,100.00
2023-05-17T06:35:56.841Z,100.00
2023-05-17T06:38:25.964Z,100.00
2023-05-17T06:40:55.522Z,100.00
2023-05-17T06:43:23.795Z,100.00
2023-05-17T06:45:52.152Z,100.00
2023-05-17T06:48:20.573Z,100.00
2023-05-17T06:50:51.911Z,100.00
2023-05-17T06:53:20.231Z,100.00
2023-05-17T06:55:48.449Z,100.00
2023-05-17T06:58:16.646Z,100.00
2023-05-17T07:00:44.937Z,100.00
2023-05-17T07:03:13.307Z,100.00
2023-05-17T07:05:41.686Z,100.00
2023-05-17T07:08:09.929Z,100.00
2023-05-17T07:10:38.040Z,100.00
2023-05-17T07:13:06.253Z,100.00
2023-05-17T07:15:34.439Z,99.61
2023-05-17T07:18:03.235Z,99.18
2023-05-17T07:20:31.795Z,98.31
2023-05-17T07:23:00.035Z,96.17
2023-05-17T07:25:28.505Z,97.16
2023-05-17T07:27:56.910Z,97.93
2023-05-17T07:30:26.671Z,97.27
2023-05-17T07:32:54.815Z,93.44
2023-05-17T07:35:23.271Z,90.22
2023-05-17T07:37:51.657Z,89.87
2023-05-17T07:40:19.934Z,90.77
2023-05-17T07:42:48.188Z,91.83
2023-05-17T07:45:16.515Z,92.52
2023-05-17T07:47:44.839Z,91.41
2023-05-17T07:50:13.170Z,94.04
2023-05-17T07:52:41.495Z,92.06
2023-05-17T07:55:10.344Z,90.75
2023-05-17T07:57:38.557Z,87.82
2023-05-17T08:00:09.162Z,86.99
2023-05-17T08:02:44.168Z,83.98
2023-05-17T08:05:12.957Z,84.71
2023-05-17T08:07:41.360Z,82.92
2023-05-17T08:10:10.284Z,82.49
2023-05-17T08:12:38.625Z,82.20
2023-05-17T08:15:07.835Z,82.79
2023-05-17T08:17:36.437Z,84.16
2023-05-17T08:20:08.224Z,84.86
2023-05-17T08:22:36.998Z,83.66
2023-05-17T08:25:05.669Z,80.76
2023-05-17T08:27:33.972Z,74.80
2023-05-17T08:30:02.530Z,72.03
2023-05-17T08:32:31.962Z,72.59
2023-05-17T08:35:00.182Z,75.20
2023-05-17T08:37:28.531Z,71.22
2023-05-17T08:39:56.744Z,74.36
2023-05-17T08:42:25.850Z,73.62
2023-05-17T08:44:55.123Z,74.89
2023-05-17T08:47:30.207Z,74.97
2023-05-17T08:50:05.149Z,77.00
2023-05-17T08:52:33.977Z,78.37
2023-05-17T08:55:05.384Z,72.66
2023-05-17T08:57:38.770Z,72.22
2023-05-17T09:00:13.717Z,67.05
2023-05-17T09:02:43.271Z,66.53
2023-05-17T09:05:13.849Z,67.89
2023-05-17T09:07:43.188Z,68.54
2023-05-17T09:10:11.406Z,67.67
2023-05-17T09:12:40.948Z,67.69
2023-05-17T09:15:21.090Z,65.95
2023-05-17T09:17:54.482Z,65.39
2023-05-17T09:20:34.593Z,63.67
2023-05-17T09:23:07.323Z,64.24
2023-05-17T09:25:37.361Z,61.69
2023-05-17T09:28:10.314Z,61.87
2023-05-17T09:30:39.924Z,60.55
2023-05-17T09:33:10.177Z,60.42
2023-05-17T09:35:39.091Z,59.79
2023-05-17T09:38:11.993Z,62.12
2023-05-17T09:40:42.251Z,63.76
2023-05-17T09:43:12.594Z,65.75
2023-05-17T09:45:41.340Z,63.08
2023-05-17T09:48:22.560Z,61.04
2023-05-17T09:50:52.477Z,62.32
2023-05-17T09:53:29.291Z,62.58
2023-05-17T09:56:02.098Z,61.45
2023-05-17T09:58:33.234Z,61.32
2023-05-17T10:01:06.354Z,57.78
2023-05-17T10:03:37.112Z,57.80
2023-05-17T10:06:13.395Z,57.64
2023-05-17T10:08:53.769Z,57.02
2023-05-17T10:11:33.228Z,57.48
2023-05-17T10:14:11.803Z,59.78
2023-05-17T10:16:40.363Z,56.63
2023-05-17T10:19:10.741Z,56.40
2023-05-17T10:21:40.278Z,56.04
2023-05-17T10:24:10.365Z,54.47
2023-05-17T10:26:39.439Z,54.45
2023-05-17T10:29:08.735Z,55.21
2023-05-17T10:31:36.940Z,55.37
2023-05-17T10:34:06.745Z,54.48
2023-05-17T10:36:35.115Z,52.06
2023-05-17T10:39:08.137Z,52.59
2023-05-17T10:41:42.498Z,50.93
2023-05-17T10:44:15.019Z,51.07
2023-05-17T10:46:57.650Z,51.55
2023-05-17T10:49:28.478Z,50.91
2023-05-17T10:52:12.181Z,50.59
2023-05-17T10:54:43.374Z,50.56
2023-05-17T10:57:36.107Z,48.90
2023-05-17T11:00:21.230Z,49.71
2023-05-17T11:02:50.992Z,49.85
2023-05-17T11:05:27.610Z,50.59
2023-05-17T11:08:17.465Z,50.92
2023-05-17T11:11:08.728Z,50.45
2023-05-17T11:13:56.667Z,51.17
2023-05-17T11:16:42.923Z,51.73
2023-05-17T11:19:12.490Z,50.69
2023-05-17T11:21:47.716Z,51.13
2023-05-17T11:24:22.193Z,50.55
2023-05-17T11:26:51.018Z,49.93
2023-05-17T11:29:19.547Z,48.68
2023-05-17T11:31:52.546Z,48.25
2023-05-17T11:34:25.349Z,47.20
2023-05-17T11:36:56.761Z,45.88
2023-05-17T11:39:25.693Z,44.07
2023-05-17T11:41:56.151Z,43.54
2023-05-17T11:44:32.309Z,42.95
2023-05-17T11:47:05.501Z,42.24
2023-05-17T11:49:37.297Z,41.43
2023-05-17T11:52:07.253Z,41.74
2023-05-17T11:54:35.775Z,39.89
2023-05-17T11:57:04.825Z,39.27
2023-05-17T11:59:43.283Z,38.70
2023-05-17T12:02:26.647Z,39.06
2023-05-17T12:04:54.838Z,38.05
2023-05-17T12:07:23.988Z,38.18
2023-05-17T12:09:53.293Z,38.09
2023-05-17T12:12:22.883Z,38.36
2023-05-17T12:14:51.540Z,38.72
2023-05-17T12:17:37.501Z,39.39
2023-05-17T12:20:10.186Z,39.36
2023-05-17T12:22:56.060Z,38.77
2023-05-17T12:25:29.793Z,38.71
2023-05-17T12:28:14.589Z,37.96
2023-05-17T12:30:43.774Z,38.41
2023-05-17T12:33:12.401Z,37.83
2023-05-17T12:35:40.911Z,37.22
2023-05-17T12:38:09.328Z,36.65
2023-05-17T12:40:42.645Z,36.15
2023-05-17T12:43:11.836Z,36.16
2023-05-17T12:45:43.614Z,36.48
2023-05-17T12:48:12.100Z,36.03
2023-05-17T12:50:46.022Z,36.24
2023-05-17T12:53:14.238Z,36.52
2023-05-17T12:55:42.487Z,36.90
2023-05-17T12:58:11.218Z,37.11
2023-05-17T13:00:39.673Z,36.51
2023-05-17T13:03:11.835Z,37.46
2023-05-17T13:05:41.528Z,38.13
2023-05-17T13:08:22.373Z,38.41
2023-05-17T13:10:50.739Z,38.87
2023-05-17T13:13:20.435Z,39.20
2023-05-17T13:15:48.683Z,40.20
2023-05-17T13:18:18.258Z,40.96
2023-05-17T13:20:46.600Z,41.38
2023-05-17T13:23:16.181Z,41.48
2023-05-17T13:25:44.400Z,41.45
2023-05-17T13:28:12.577Z,41.84
2023-05-17T13:30:41.002Z,42.83
2023-05-17T13:33:09.399Z,42.58
2023-05-17T13:35:38.881Z,42.31
2023-05-17T13:38:07.157Z,42.12
2023-05-17T13:40:35.293Z,42.43
2023-05-17T13:43:04.078Z,41.28
2023-05-17T13:45:32.447Z,41.55
2023-05-17T13:48:00.920Z,42.24
2023-05-17T13:50:29.585Z,42.18
2023-05-17T13:52:58.828Z,42.67
2023-05-17T13:55:27.126Z,42.98
2023-05-17T13:57:56.055Z,42.59
2023-05-17T14:00:24.615Z,42.18
2023-05-17T14:02:52.907Z,41.99
2023-05-17T14:05:21.331Z,42.40
2023-05-17T14:07:51.669Z,42.65
2023-05-17T14:10:20.039Z,42.38
2023-05-17T14:12:48.580Z,42.79
2023-05-17T14:15:17.127Z,42.22
2023-05-17T14:17:46.064Z,42.77
2023-05-17T14:20:15.113Z,42.62
2023-05-17T14:22:43.968Z,42.37
2023-05-17T14:25:12.588Z,42.93
2023-05-17T14:27:40.897Z,43.11
2023-05-17T14:30:12.099Z,43.48
2023-05-17T14:32:41.816Z,42.92
2023-05-17T14:35:10.906Z,43.09
2023-05-17T14:37:39.166Z,43.22
2023-05-17T14:40:08.285Z,43.13
2023-05-17T14:42:36.751Z,42.85
2023-05-17T14:45:11.962Z,42.85
2023-05-17T14:47:40.403Z,43.59
2023-05-17T14:50:11.062Z,44.04
2023-05-17T14:52:39.282Z,44.04
2023-05-17T14:55:09.133Z,44.40
2023-05-17T14:57:37.392Z,44.89
2023-05-17T15:00:10.627Z,44.56
2023-05-17T15:02:39.041Z,44.44
2023-05-17T15:05:08.053Z,44.57
2023-05-17T15:07:36.876Z,45.23
2023-05-17T15:10:11.464Z,45.81
2023-05-17T15:12:40.362Z,45.69
2023-05-17T15:15:16.330Z,45.79
2023-05-17T15:17:44.615Z,45.61
2023-05-17T15:20:13.929Z,45.91
2023-05-17T15:22:42.670Z,46.27
2023-05-17T15:25:11.181Z,45.97
2023-05-17T15:27:39.479Z,45.70
2023-05-17T15:30:09.495Z,46.01
2023-05-17T15:32:38.627Z,46.12
2023-05-17T15:35:07.907Z,46.38
2023-05-17T15:37:36.520Z,46.84
2023-05-17T15:40:10.115Z,47.04
2023-05-17T15:42:38.249Z,47.60
2023-05-17T15:45:09.347Z,47.20
2023-05-17T15:47:43.161Z,47.14
2023-05-17T15:50:13.093Z,47.60
2023-05-17T15:52:41.454Z,46.90
2023-05-17T15:55:11.374Z,47.23
2023-05-17T15:57:39.731Z,46.87
2023-05-17T16:00:09.486Z,47.17
2023-05-17T16:02:37.753Z,47.65
2023-05-17T16:05:33.996Z,47.84
2023-05-17T16:08:02.383Z,48.52
2023-05-17T16:10:47.612Z,48.60
2023-05-17T16:13:34.036Z,49.77
2023-05-17T16:16:02.665Z,51.10
2023-05-17T16:18:33.341Z,51.81
2023-05-17T16:21:05.164Z,52.82
2023-05-17T16:23:37.490Z,53.81
2023-05-17T16:26:06.223Z,53.92
2023-05-17T16:28:52.178Z,53.96
2023-05-17T16:31:20.666Z,54.06
2023-05-17T16:33:51.500Z,54.32
2023-05-17T16:36:22.667Z,54.57
2023-05-17T16:38:59.322Z,55.23
2023-05-17T16:41:28.872Z,55.52
2023-05-17T16:44:14.072Z,55.57
2023-05-17T16:46:42.436Z,55.53
2023-05-17T16:49:27.620Z,55.61
2023-05-17T16:51:56.738Z,55.36
2023-05-17T16:54:28.505Z,55.53
2023-05-17T16:56:56.819Z,56.06
2023-05-17T16:59:41.970Z,55.84
2023-05-17T17:02:10.268Z,56.01
2023-05-17T17:04:40.711Z,56.13
2023-05-17T17:07:08.996Z,56.25
2023-05-17T17:09:39.853Z,57.07
2023-05-17T17:12:22.899Z,57.41
2023-05-17T17:15:09.671Z,57.61
2023-05-17T17:17:38.199Z,58.21
2023-05-17T17:20:27.341Z,58.27
2023-05-17T17:22:56.244Z,58.65
2023-05-17T17:25:38.770Z,58.41
2023-05-17T17:28:07.395Z,58.70
2023-05-17T17:30:50.261Z,58.90
2023-05-17T17:33:18.563Z,59.26
2023-05-17T17:36:00.121Z,59.34
2023-05-17T17:38:28.437Z,59.49
2023-05-17T17:40:59.254Z,59.18
2023-05-17T17:43:27.789Z,59.50
2023-05-17T17:46:17.828Z,59.56
2023-05-17T17:48:56.601Z,59.40
2023-05-17T17:51:25.468Z,59.37
2023-05-17T17:54:14.334Z,59.48
2023-05-17T17:56:42.635Z,59.20
2023-05-17T17:59:31.721Z,59.21
2023-05-17T18:02:00.007Z,59.10
2023-05-17T18:04:28.798Z,58.99
2023-05-17T18:06:57.144Z,59.27
2023-05-17T18:09:25.499Z,59.71
2023-05-17T18:11:53.725Z,59.37
2023-05-17T18:14:22.115Z,59.23
2023-05-17T18:16:50.382Z,59.53
2023-05-17T18:19:19.028Z,59.38
2023-05-17T18:21:50.487Z,59.25
2023-05-17T18:24:18.925Z,59.57
2023-05-17T18:26:47.163Z,59.25
2023-05-17T18:29:36.253Z,59.60
2023-05-17T18:32:05.336Z,59.76
2023-05-17T18:34:36.438Z,59.27
2023-05-17T18:37:05.173Z,59.05
2023-05-17T18:39:39.803Z,59.02
2023-05-17T18:42:08.263Z,59.27
2023-05-17T18:44:40.715Z,59.11
2023-05-17T18:47:09.214Z,59.33
2023-05-17T18:49:40.691Z,58.98
2023-05-17T18:52:09.287Z,58.70
2023-05-17T18:54:42.714Z,58.76
2023-05-17T18:57:12.364Z,58.89
2023-05-17T19:00:01.195Z,58.92
2023-05-17T19:02:29.806Z,58.49
2023-05-17T19:05:14.855Z,59.22
2023-05-17T19:07:43.124Z,59.16
2023-05-17T19:10:33.902Z,59.69
2023-05-17T19:13:02.378Z,60.19
2023-05-17T19:15:50.639Z,60.37
2023-05-17T19:18:19.006Z,60.77
2023-05-17T19:21:13.493Z,60.35
2023-05-17T19:23:42.100Z,60.61
2023-05-17T19:26:31.292Z,60.64
2023-05-17T19:28:59.759Z,60.63
2023-05-17T19:31:30.865Z,60.82
2023-05-17T19:33:59.679Z,61.56
2023-05-17T19:36:47.942Z,62.14
2023-05-17T19:39:31.926Z,63.33
2023-05-17T19:42:00.311Z,65.05
2023-05-17T19:45:10.454Z,66.00
2023-05-17T19:47:47.448Z,65.82
2023-05-17T19:50:15.796Z,65.96
2023-05-17T19:52:44.105Z,67.26
2023-05-17T19:55:16.149Z,67.54
2023-05-17T19:57:44.939Z,66.64
2023-05-17T20:00:18.501Z,66.86
2023-05-17T20:02:49.500Z,66.51
2023-05-17T20:05:18.962Z,65.63
2023-05-17T20:07:47.516Z,65.31
2023-05-17T20:10:21.265Z,64.74
2023-05-17T20:12:49.545Z,64.62
2023-05-17T20:15:17.857Z,64.74
2023-05-17T20:17:46.489Z,65.51
2023-05-17T20:20:14.744Z,65.83
2023-05-17T20:22:43.334Z,64.81
2023-05-17T20:25:19.736Z,65.35
2023-05-17T20:27:48.000Z,65.73
2023-05-17T20:30:20.273Z,65.98
2023-05-17T20:32:48.563Z,66.38
2023-05-17T20:35:19.570Z,66.86
2023-05-17T20:37:47.768Z,67.04
2023-05-17T20:40:24.052Z,67.72
2023-05-17T20:42:53.500Z,67.41
2023-05-17T20:45:41.965Z,66.65
2023-05-17T20:48:10.392Z,66.33
2023-05-17T20:50:58.615Z,65.14
2023-05-17T20:53:28.935Z,65.08
2023-05-17T20:56:05.738Z,65.07
2023-05-17T20:58:33.983Z,65.29
2023-05-17T21:01:06.530Z,65.29
2023-05-17T21:03:35.184Z,64.93
2023-05-17T21:06:08.448Z,64.72
2023-05-17T21:08:36.702Z,64.54
2023-05-17T21:11:18.978Z,64.08
2023-05-17T21:13:48.202Z,63.79
2023-05-17T21:16:32.893Z,63.69
2023-05-17T21:19:01.321Z,63.15
2023-05-17T21:21:33.450Z,63.26
2023-05-17T21:24:01.653Z,62.85
2023-05-17T21:26:33.983Z,62.78
2023-05-17T21:29:02.928Z,62.78
2023-05-17T21:31:38.936Z,62.61
2023-05-17T21:34:07.176Z,63.07
2023-05-17T21:36:55.979Z,63.16
2023-05-17T21:39:24.225Z,64.75
2023-05-17T21:42:00.248Z,65.41
2023-05-17T21:44:28.507Z,64.22
2023-05-17T21:46:58.392Z,63.44
2023-05-17T21:49:28.694Z,63.25
2023-05-17T21:52:00.818Z,63.52
2023-05-17T21:54:28.983Z,64.03
2023-05-17T21:57:05.247Z,64.64
2023-05-17T21:59:34.162Z,64.91
2023-05-17T22:02:11.703Z,65.91
2023-05-17T22:04:41.020Z,66.95
2023-05-17T22:07:14.354Z,67.40
2023-05-17T22:09:42.668Z,68.19
2023-05-17T22:12:12.407Z,68.97
2023-05-17T22:15:00.472Z,69.63
2023-05-17T22:17:39.252Z,70.59
2023-05-17T22:20:35.912Z,75.82
2023-05-17T22:23:04.598Z,88.82
2023-05-17T22:25:41.556Z,95.56
2023-05-17T22:28:09.765Z,100.00
2023-05-17T22:30:45.007Z,100.00
2023-05-17T22:33:13.599Z,100.00
2023-05-17T22:35:42.423Z,99.80
2023-05-17T22:38:10.666Z,100.00
2023-05-17T22:40:38.892Z,100.00
2023-05-17T22:43:08.421Z,100.00
2023-05-17T22:45:44.782Z,100.00
2023-05-17T22:48:14.661Z,97.58
2023-05-17T22:50:54.735Z,99.62
2023-05-17T22:53:22.961Z,100.00
2023-05-17T22:55:59.578Z,100.00
2023-05-17T22:58:27.790Z,99.73
2023-05-17T23:01:00.163Z,99.74
2023-05-17T23:03:28.508Z,100.00
2023-05-17T23:06:03.195Z,100.00
2023-05-17T23:08:34.622Z,100.00
2023-05-17T23:11:11.464Z,100.00
2023-05-17T23:13:39.737Z,100.00
2023-05-17T23:16:16.904Z,100.00
2023-05-17T23:18:46.548Z,100.00
2023-05-17T23:21:19.008Z,100.00
2023-05-17T23:23:47.692Z,100.00
2023-05-17T23:26:19.909Z,100.00
2023-05-17T23:28:50.565Z,100.00
2023-05-17T23:31:22.743Z,100.00
2023-05-17T23:33:50.955Z,100.00
2023-05-17T23:36:23.009Z,100.00
2023-05-17T23:38:51.182Z,100.00
2023-05-17T23:41:21.724Z,100.00
2023-05-17T23:43:50.160Z,100.00
2023-05-17T23:46:22.564Z,100.00
2023-05-17T23:48:50.800Z,100.00
2023-05-17T23:51:23.987Z,100.00
2023-05-17T23:53:52.094Z,100.00
2023-05-17T23:56:24.131Z,100.00
2023-05-17T23:58:52.425Z,100.00
